sensor_id;sensor_type;location;lat;lon;timestamp;temperature;humidity
83289;DHT22;73193;50.866;5.420;2024-03-06T00:01:10;10.00;63.60
83289;DHT22;73193;50.866;5.420;2024-03-06T00:02:40;10.00;63.80
83289;DHT22;73193;50.866;5.420;2024-03-06T00:04:11;9.90;64.10
83289;DHT22;73193;50.866;5.420;2024-03-06T00:05:42;9.80;64.00
83289;DHT22;73193;50.866;5.420;2024-03-06T00:07:12;9.70;64.20
83289;DHT22;73193;50.866;5.420;2024-03-06T00:08:43;9.70;63.90
83289;DHT22;73193;50.866;5.420;2024-03-06T00:10:14;9.60;64.20
83289;DHT22;73193;50.866;5.420;2024-03-06T00:11:45;9.60;64.10
83289;DHT22;73193;50.866;5.420;2024-03-06T00:13:15;9.50;63.80
83289;DHT22;73193;50.866;5.420;2024-03-06T00:14:46;9.50;64.20
83289;DHT22;73193;50.866;5.420;2024-03-06T00:16:17;9.40;64.40
83289;DHT22;73193;50.866;5.420;2024-03-06T00:17:47;9.40;64.50
83289;DHT22;73193;50.866;5.420;2024-03-06T00:19:19;9.30;64.60
83289;DHT22;73193;50.866;5.420;2024-03-06T00:20:50;9.20;64.40
83289;DHT22;73193;50.866;5.420;2024-03-06T00:22:21;9.20;64.90
83289;DHT22;73193;50.866;5.420;2024-03-06T00:23:52;9.10;65.20
83289;DHT22;73193;50.866;5.420;2024-03-06T00:25:22;9.00;65.10
83289;DHT22;73193;50.866;5.420;2024-03-06T00:26:53;9.00;64.80
83289;DHT22;73193;50.866;5.420;2024-03-06T00:28:24;9.00;64.80
83289;DHT22;73193;50.866;5.420;2024-03-06T00:29:55;9.00;64.80
83289;DHT22;73193;50.866;5.420;2024-03-06T00:31:25;9.00;64.30
83289;DHT22;73193;50.866;5.420;2024-03-06T00:32:56;8.90;64.60
83289;DHT22;73193;50.866;5.420;2024-03-06T00:34:27;8.90;64.20
83289;DHT22;73193;50.866;5.420;2024-03-06T00:35:58;8.90;64.40
83289;DHT22;73193;50.866;5.420;2024-03-06T00:37:29;8.80;64.30
83289;DHT22;73193;50.866;5.420;2024-03-06T00:38:59;8.60;65.10
83289;DHT22;73193;50.866;5.420;2024-03-06T00:40:30;8.60;65.10
83289;DHT22;73193;50.866;5.420;2024-03-06T00:42:03;8.60;65.20
83289;DHT22;73193;50.866;5.420;2024-03-06T00:43:35;8.50;65.10
83289;DHT22;73193;50.866;5.420;2024-03-06T00:45:06;8.60;65.10
83289;DHT22;73193;50.866;5.420;2024-03-06T00:46:36;8.50;64.60
83289;DHT22;73193;50.866;5.420;2024-03-06T00:48:07;8.50;65.00
83289;DHT22;73193;50.866;5.420;2024-03-06T00:49:38;8.40;65.00
83289;DHT22;73193;50.866;5.420;2024-03-06T00:51:09;8.40;65.00
83289;DHT22;73193;50.866;5.420;2024-03-06T00:52:40;8.40;64.60
83289;DHT22;73193;50.866;5.420;2024-03-06T00:54:11;8.40;64.60
83289;DHT22;73193;50.866;5.420;2024-03-06T00:55:41;8.30;64.90
83289;DHT22;73193;50.866;5.420;2024-03-06T00:57:12;8.20;65.00
83289;DHT22;73193;50.866;5.420;2024-03-06T00:58:43;8.20;64.90
83289;DHT22;73193;50.866;5.420;2024-03-06T01:00:14;8.20;65.00
83289;DHT22;73193;50.866;5.420;2024-03-06T01:01:46;8.10;64.40
83289;DHT22;73193;50.866;5.420;2024-03-06T01:03:17;8.10;64.50
83289;DHT22;73193;50.866;5.420;2024-03-06T01:04:47;8.10;64.40
83289;DHT22;73193;50.866;5.420;2024-03-06T01:06:18;8.00;64.50
83289;DHT22;73193;50.866;5.420;2024-03-06T01:07:48;8.00;64.70
83289;DHT22;73193;50.866;5.420;2024-03-06T01:09:19;8.00;64.90
83289;DHT22;73193;50.866;5.420;2024-03-06T01:10:50;7.90;64.80
83289;DHT22;73193;50.866;5.420;2024-03-06T01:12:22;7.90;64.80
83289;DHT22;73193;50.866;5.420;2024-03-06T01:13:53;7.80;64.70
83289;DHT22;73193;50.866;5.420;2024-03-06T01:15:24;7.80;64.50
83289;DHT22;73193;50.866;5.420;2024-03-06T01:16:54;7.80;65.00
83289;DHT22;73193;50.866;5.420;2024-03-06T01:18:26;7.70;65.00
83289;DHT22;73193;50.866;5.420;2024-03-06T01:19:56;7.60;64.90
83289;DHT22;73193;50.866;5.420;2024-03-06T01:21:27;7.50;65.30
83289;DHT22;73193;50.866;5.420;2024-03-06T01:22:59;7.50;65.50
83289;DHT22;73193;50.866;5.420;2024-03-06T01:24:30;7.50;65.50
83289;DHT22;73193;50.866;5.420;2024-03-06T01:26:00;7.50;65.50
83289;DHT22;73193;50.866;5.420;2024-03-06T01:27:31;7.50;65.50
83289;DHT22;73193;50.866;5.420;2024-03-06T01:29:02;7.50;65.10
83289;DHT22;73193;50.866;5.420;2024-03-06T01:30:32;7.50;65.30
83289;DHT22;73193;50.866;5.420;2024-03-06T01:32:03;7.40;65.70
83289;DHT22;73193;50.866;5.420;2024-03-06T01:33:34;7.40;65.50
83289;DHT22;73193;50.866;5.420;2024-03-06T01:35:05;7.40;65.00
83289;DHT22;73193;50.866;5.420;2024-03-06T01:36:36;7.30;65.00
83289;DHT22;73193;50.866;5.420;2024-03-06T01:38:07;7.20;65.60
83289;DHT22;73193;50.866;5.420;2024-03-06T01:39:39;7.20;65.80
83289;DHT22;73193;50.866;5.420;2024-03-06T01:41:10;7.20;65.90
83289;DHT22;73193;50.866;5.420;2024-03-06T01:42:41;7.20;65.90
83289;DHT22;73193;50.866;5.420;2024-03-06T01:44:12;7.20;65.50
83289;DHT22;73193;50.866;5.420;2024-03-06T01:45:43;7.20;65.40
83289;DHT22;73193;50.866;5.420;2024-03-06T01:47:13;7.20;65.30
83289;DHT22;73193;50.866;5.420;2024-03-06T01:48:44;7.20;65.10
83289;DHT22;73193;50.866;5.420;2024-03-06T01:50:16;7.10;65.40
83289;DHT22;73193;50.866;5.420;2024-03-06T01:51:54;7.10;65.00
83289;DHT22;73193;50.866;5.420;2024-03-06T01:53:28;7.00;64.90
83289;DHT22;73193;50.866;5.420;2024-03-06T01:54:59;7.00;64.90
83289;DHT22;73193;50.866;5.420;2024-03-06T01:56:33;7.00;64.80
83289;DHT22;73193;50.866;5.420;2024-03-06T01:58:04;7.00;64.90
83289;DHT22;73193;50.866;5.420;2024-03-06T01:59:36;6.90;64.90
83289;DHT22;73193;50.866;5.420;2024-03-06T02:01:07;6.90;64.70
83289;DHT22;73193;50.866;5.420;2024-03-06T02:02:38;6.90;64.80
83289;DHT22;73193;50.866;5.420;2024-03-06T02:04:09;6.80;64.50
83289;DHT22;73193;50.866;5.420;2024-03-06T02:05:41;6.80;64.70
83289;DHT22;73193;50.866;5.420;2024-03-06T02:07:14;6.80;64.60
83289;DHT22;73193;50.866;5.420;2024-03-06T02:08:46;6.70;65.10
83289;DHT22;73193;50.866;5.420;2024-03-06T02:10:17;6.70;65.10
83289;DHT22;73193;50.866;5.420;2024-03-06T02:11:47;6.70;65.30
83289;DHT22;73193;50.866;5.420;2024-03-06T02:13:18;6.60;65.30
83289;DHT22;73193;50.866;5.420;2024-03-06T02:14:49;6.70;65.10
83289;DHT22;73193;50.866;5.420;2024-03-06T02:16:20;6.60;65.30
83289;DHT22;73193;50.866;5.420;2024-03-06T02:17:51;6.60;65.40
83289;DHT22;73193;50.866;5.420;2024-03-06T02:19:22;6.60;65.60
83289;DHT22;73193;50.866;5.420;2024-03-06T02:20:53;6.60;65.40
83289;DHT22;73193;50.866;5.420;2024-03-06T02:22:23;6.60;65.60
83289;DHT22;73193;50.866;5.420;2024-03-06T02:23:54;6.60;66.00
83289;DHT22;73193;50.866;5.420;2024-03-06T02:25:25;6.60;66.00
83289;DHT22;73193;50.866;5.420;2024-03-06T02:26:56;6.60;65.40
83289;DHT22;73193;50.866;5.420;2024-03-06T02:28:27;6.60;64.90
83289;DHT22;73193;50.866;5.420;2024-03-06T02:29:57;6.70;64.40
83289;DHT22;73193;50.866;5.420;2024-03-06T02:31:28;6.70;64.70
83289;DHT22;73193;50.866;5.420;2024-03-06T02:32:59;6.70;64.70
83289;DHT22;73193;50.866;5.420;2024-03-06T02:34:29;6.60;64.80
83289;DHT22;73193;50.866;5.420;2024-03-06T02:36:03;6.60;65.10
83289;DHT22;73193;50.866;5.420;2024-03-06T02:37:36;6.60;64.80
83289;DHT22;73193;50.866;5.420;2024-03-06T02:39:06;6.50;64.70
83289;DHT22;73193;50.866;5.420;2024-03-06T02:40:39;6.50;64.80
83289;DHT22;73193;50.866;5.420;2024-03-06T02:42:09;6.60;64.60
83289;DHT22;73193;50.866;5.420;2024-03-06T02:43:40;6.60;64.50
83289;DHT22;73193;50.866;5.420;2024-03-06T02:45:11;6.50;64.40
83289;DHT22;73193;50.866;5.420;2024-03-06T02:46:41;6.50;64.70
83289;DHT22;73193;50.866;5.420;2024-03-06T02:48:12;6.50;63.90
83289;DHT22;73193;50.866;5.420;2024-03-06T02:49:43;6.40;64.60
83289;DHT22;73193;50.866;5.420;2024-03-06T02:51:18;6.40;64.60
83289;DHT22;73193;50.866;5.420;2024-03-06T02:52:50;6.40;64.30
83289;DHT22;73193;50.866;5.420;2024-03-06T02:54:22;6.40;64.50
83289;DHT22;73193;50.866;5.420;2024-03-06T02:55:52;6.40;64.20
83289;DHT22;73193;50.866;5.420;2024-03-06T02:57:23;6.40;63.90
83289;DHT22;73193;50.866;5.420;2024-03-06T02:58:56;6.40;64.00
83289;DHT22;73193;50.866;5.420;2024-03-06T03:00:28;6.30;64.50
83289;DHT22;73193;50.866;5.420;2024-03-06T03:01:59;6.20;65.40
83289;DHT22;73193;50.866;5.420;2024-03-06T03:03:30;6.20;65.00
83289;DHT22;73193;50.866;5.420;2024-03-06T03:05:01;6.20;65.20
83289;DHT22;73193;50.866;5.420;2024-03-06T03:06:31;6.10;65.30
83289;DHT22;73193;50.866;5.420;2024-03-06T03:08:02;6.10;65.30
83289;DHT22;73193;50.866;5.420;2024-03-06T03:09:34;6.10;65.40
83289;DHT22;73193;50.866;5.420;2024-03-06T03:11:06;6.10;65.80
83289;DHT22;73193;50.866;5.420;2024-03-06T03:12:38;6.00;65.80
83289;DHT22;73193;50.866;5.420;2024-03-06T03:14:10;6.00;66.20
83289;DHT22;73193;50.866;5.420;2024-03-06T03:15:40;6.00;65.70
83289;DHT22;73193;50.866;5.420;2024-03-06T03:17:12;6.00;65.70
83289;DHT22;73193;50.866;5.420;2024-03-06T03:18:43;6.00;65.90
83289;DHT22;73193;50.866;5.420;2024-03-06T03:20:14;6.00;65.50
83289;DHT22;73193;50.866;5.420;2024-03-06T03:21:47;5.90;65.50
83289;DHT22;73193;50.866;5.420;2024-03-06T03:23:17;6.00;65.20
83289;DHT22;73193;50.866;5.420;2024-03-06T03:24:52;5.90;65.20
83289;DHT22;73193;50.866;5.420;2024-03-06T03:26:23;5.80;65.60
83289;DHT22;73193;50.866;5.420;2024-03-06T03:27:53;5.80;65.70
83289;DHT22;73193;50.866;5.420;2024-03-06T03:29:24;5.80;65.50
83289;DHT22;73193;50.866;5.420;2024-03-06T03:30:55;5.80;65.20
83289;DHT22;73193;50.866;5.420;2024-03-06T03:32:26;5.80;65.10
83289;DHT22;73193;50.866;5.420;2024-03-06T03:33:57;5.70;65.10
83289;DHT22;73193;50.866;5.420;2024-03-06T03:35:28;5.70;64.90
83289;DHT22;73193;50.866;5.420;2024-03-06T03:36:59;5.70;65.40
83289;DHT22;73193;50.866;5.420;2024-03-06T03:38:29;5.70;64.80
83289;DHT22;73193;50.866;5.420;2024-03-06T03:40:00;5.70;65.00
83289;DHT22;73193;50.866;5.420;2024-03-06T03:41:31;5.70;64.80
83289;DHT22;73193;50.866;5.420;2024-03-06T03:43:01;5.70;65.10
83289;DHT22;73193;50.866;5.420;2024-03-06T03:44:36;5.70;65.30
83289;DHT22;73193;50.866;5.420;2024-03-06T03:46:07;5.70;64.70
83289;DHT22;73193;50.866;5.420;2024-03-06T03:47:40;5.70;64.80
83289;DHT22;73193;50.866;5.420;2024-03-06T03:49:11;5.60;65.20
83289;DHT22;73193;50.866;5.420;2024-03-06T03:50:42;5.60;65.00
83289;DHT22;73193;50.866;5.420;2024-03-06T03:52:13;5.60;65.00
83289;DHT22;73193;50.866;5.420;2024-03-06T03:53:44;5.60;65.00
83289;DHT22;73193;50.866;5.420;2024-03-06T03:55:15;5.60;64.80
83289;DHT22;73193;50.866;5.420;2024-03-06T03:56:45;5.60;64.80
83289;DHT22;73193;50.866;5.420;2024-03-06T03:58:16;5.50;64.90
83289;DHT22;73193;50.866;5.420;2024-03-06T03:59:46;5.50;65.00
83289;DHT22;73193;50.866;5.420;2024-03-06T04:01:17;5.50;64.80
83289;DHT22;73193;50.866;5.420;2024-03-06T04:02:48;5.50;64.80
83289;DHT22;73193;50.866;5.420;2024-03-06T04:04:19;5.40;64.70
83289;DHT22;73193;50.866;5.420;2024-03-06T04:05:49;5.40;64.60
83289;DHT22;73193;50.866;5.420;2024-03-06T04:07:20;5.40;65.00
83289;DHT22;73193;50.866;5.420;2024-03-06T04:08:51;5.30;64.40
83289;DHT22;73193;50.866;5.420;2024-03-06T04:10:22;5.30;64.50
83289;DHT22;73193;50.866;5.420;2024-03-06T04:11:52;5.30;64.60
83289;DHT22;73193;50.866;5.420;2024-03-06T04:13:23;5.30;64.80
83289;DHT22;73193;50.866;5.420;2024-03-06T04:14:54;5.30;64.70
83289;DHT22;73193;50.866;5.420;2024-03-06T04:16:24;5.30;64.60
83289;DHT22;73193;50.866;5.420;2024-03-06T04:17:56;5.30;64.50
83289;DHT22;73193;50.866;5.420;2024-03-06T04:19:27;5.30;64.00
83289;DHT22;73193;50.866;5.420;2024-03-06T04:20:57;5.30;64.10
83289;DHT22;73193;50.866;5.420;2024-03-06T04:22:28;5.20;64.10
83289;DHT22;73193;50.866;5.420;2024-03-06T04:23:59;5.20;63.40
83289;DHT22;73193;50.866;5.420;2024-03-06T04:25:30;5.20;64.10
83289;DHT22;73193;50.866;5.420;2024-03-06T04:27:01;5.10;64.70
83289;DHT22;73193;50.866;5.420;2024-03-06T04:28:31;5.20;64.80
83289;DHT22;73193;50.866;5.420;2024-03-06T04:30:02;5.10;64.70
83289;DHT22;73193;50.866;5.420;2024-03-06T04:31:35;5.10;64.60
83289;DHT22;73193;50.866;5.420;2024-03-06T04:33:05;5.10;64.50
83289;DHT22;73193;50.866;5.420;2024-03-06T04:34:36;5.10;64.60
83289;DHT22;73193;50.866;5.420;2024-03-06T04:36:08;5.10;64.70
83289;DHT22;73193;50.866;5.420;2024-03-06T04:37:38;5.00;65.00
83289;DHT22;73193;50.866;5.420;2024-03-06T04:39:09;5.00;64.40
83289;DHT22;73193;50.866;5.420;2024-03-06T04:40:40;5.00;65.50
83289;DHT22;73193;50.866;5.420;2024-03-06T04:42:11;5.00;65.00
83289;DHT22;73193;50.866;5.420;2024-03-06T04:43:42;5.00;64.70
83289;DHT22;73193;50.866;5.420;2024-03-06T04:45:16;5.00;64.40
83289;DHT22;73193;50.866;5.420;2024-03-06T04:46:50;5.00;64.60
83289;DHT22;73193;50.866;5.420;2024-03-06T04:48:21;5.00;64.40
83289;DHT22;73193;50.866;5.420;2024-03-06T04:49:52;5.00;64.40
83289;DHT22;73193;50.866;5.420;2024-03-06T04:51:22;5.00;64.40
83289;DHT22;73193;50.866;5.420;2024-03-06T04:52:53;5.00;64.70
83289;DHT22;73193;50.866;5.420;2024-03-06T04:54:23;4.90;65.10
83289;DHT22;73193;50.866;5.420;2024-03-06T04:55:54;4.90;64.70
83289;DHT22;73193;50.866;5.420;2024-03-06T04:57:25;4.90;64.90
83289;DHT22;73193;50.866;5.420;2024-03-06T04:58:57;4.90;65.10
83289;DHT22;73193;50.866;5.420;2024-03-06T05:00:33;4.90;64.90
83289;DHT22;73193;50.866;5.420;2024-03-06T05:02:03;4.90;65.00
83289;DHT22;73193;50.866;5.420;2024-03-06T05:03:34;4.90;65.10
83289;DHT22;73193;50.866;5.420;2024-03-06T05:05:06;4.90;65.20
83289;DHT22;73193;50.866;5.420;2024-03-06T05:06:38;4.90;64.80
83289;DHT22;73193;50.866;5.420;2024-03-06T05:08:09;4.90;64.40
83289;DHT22;73193;50.866;5.420;2024-03-06T05:09:41;4.90;65.40
83289;DHT22;73193;50.866;5.420;2024-03-06T05:11:12;4.80;65.50
83289;DHT22;73193;50.866;5.420;2024-03-06T05:12:42;4.90;65.10
83289;DHT22;73193;50.866;5.420;2024-03-06T05:14:13;4.90;65.00
83289;DHT22;73193;50.866;5.420;2024-03-06T05:15:44;4.90;64.70
83289;DHT22;73193;50.866;5.420;2024-03-06T05:17:14;4.90;64.50
83289;DHT22;73193;50.866;5.420;2024-03-06T05:18:45;4.90;64.60
83289;DHT22;73193;50.866;5.420;2024-03-06T05:20:15;4.90;64.50
83289;DHT22;73193;50.866;5.420;2024-03-06T05:21:47;4.80;64.60
83289;DHT22;73193;50.866;5.420;2024-03-06T05:23:17;4.70;64.70
83289;DHT22;73193;50.866;5.420;2024-03-06T05:24:48;4.80;64.70
83289;DHT22;73193;50.866;5.420;2024-03-06T05:26:18;4.80;64.60
83289;DHT22;73193;50.866;5.420;2024-03-06T05:27:49;4.80;64.70
83289;DHT22;73193;50.866;5.420;2024-03-06T05:29:20;4.70;64.50
83289;DHT22;73193;50.866;5.420;2024-03-06T05:30:50;4.80;64.70
83289;DHT22;73193;50.866;5.420;2024-03-06T05:32:21;4.70;64.70
83289;DHT22;73193;50.866;5.420;2024-03-06T05:33:52;4.70;65.10
83289;DHT22;73193;50.866;5.420;2024-03-06T05:35:22;4.70;65.00
83289;DHT22;73193;50.866;5.420;2024-03-06T05:36:53;4.70;64.70
83289;DHT22;73193;50.866;5.420;2024-03-06T05:38:24;4.70;64.90
83289;DHT22;73193;50.866;5.420;2024-03-06T05:39:54;4.70;64.70
83289;DHT22;73193;50.866;5.420;2024-03-06T05:41:25;4.70;64.80
83289;DHT22;73193;50.866;5.420;2024-03-06T05:42:56;4.70;64.90
83289;DHT22;73193;50.866;5.420;2024-03-06T05:44:26;4.70;65.00
83289;DHT22;73193;50.866;5.420;2024-03-06T05:45:57;4.70;64.70
83289;DHT22;73193;50.866;5.420;2024-03-06T05:47:28;4.70;64.40
83289;DHT22;73193;50.866;5.420;2024-03-06T05:48:58;4.70;64.30
83289;DHT22;73193;50.866;5.420;2024-03-06T05:50:29;4.60;64.60
83289;DHT22;73193;50.866;5.420;2024-03-06T05:52:00;4.50;64.70
83289;DHT22;73193;50.866;5.420;2024-03-06T05:53:30;4.60;64.70
83289;DHT22;73193;50.866;5.420;2024-03-06T05:55:08;4.60;64.00
83289;DHT22;73193;50.866;5.420;2024-03-06T05:56:40;4.60;63.90
83289;DHT22;73193;50.866;5.420;2024-03-06T05:58:12;4.50;64.20
83289;DHT22;73193;50.866;5.420;2024-03-06T05:59:43;4.60;64.40
83289;DHT22;73193;50.866;5.420;2024-03-06T06:01:15;4.60;64.50
83289;DHT22;73193;50.866;5.420;2024-03-06T06:02:49;4.50;64.20
83289;DHT22;73193;50.866;5.420;2024-03-06T06:04:20;4.50;64.50
83289;DHT22;73193;50.866;5.420;2024-03-06T06:05:51;4.50;64.70
83289;DHT22;73193;50.866;5.420;2024-03-06T06:07:21;4.50;64.80
83289;DHT22;73193;50.866;5.420;2024-03-06T06:08:52;4.50;64.40
83289;DHT22;73193;50.866;5.420;2024-03-06T06:10:23;4.50;64.80
83289;DHT22;73193;50.866;5.420;2024-03-06T06:11:54;4.50;65.40
83289;DHT22;73193;50.866;5.420;2024-03-06T06:13:24;4.50;65.60
83289;DHT22;73193;50.866;5.420;2024-03-06T06:14:55;4.50;65.50
83289;DHT22;73193;50.866;5.420;2024-03-06T06:16:26;4.50;65.50
83289;DHT22;73193;50.866;5.420;2024-03-06T06:17:56;4.50;65.30
83289;DHT22;73193;50.866;5.420;2024-03-06T06:19:27;4.50;64.90
83289;DHT22;73193;50.866;5.420;2024-03-06T06:20:58;4.50;64.60
83289;DHT22;73193;50.866;5.420;2024-03-06T06:22:29;4.60;64.40
83289;DHT22;73193;50.866;5.420;2024-03-06T06:23:59;4.60;63.90
83289;DHT22;73193;50.866;5.420;2024-03-06T06:25:30;4.60;63.40
83289;DHT22;73193;50.866;5.420;2024-03-06T06:27:01;4.50;64.70
83289;DHT22;73193;50.866;5.420;2024-03-06T06:28:31;4.50;65.10
83289;DHT22;73193;50.866;5.420;2024-03-06T06:30:02;4.50;65.10
83289;DHT22;73193;50.866;5.420;2024-03-06T06:31:33;4.50;65.10
83289;DHT22;73193;50.866;5.420;2024-03-06T06:33:04;4.50;65.00
83289;DHT22;73193;50.866;5.420;2024-03-06T06:34:35;4.50;65.10
83289;DHT22;73193;50.866;5.420;2024-03-06T06:36:06;4.50;64.90
83289;DHT22;73193;50.866;5.420;2024-03-06T06:37:37;4.50;65.10
83289;DHT22;73193;50.866;5.420;2024-03-06T06:39:08;4.50;65.20
83289;DHT22;73193;50.866;5.420;2024-03-06T06:40:39;4.50;64.90
83289;DHT22;73193;50.866;5.420;2024-03-06T06:42:11;4.50;64.70
83289;DHT22;73193;50.866;5.420;2024-03-06T06:43:41;4.50;64.60
83289;DHT22;73193;50.866;5.420;2024-03-06T06:45:12;4.50;65.00
83289;DHT22;73193;50.866;5.420;2024-03-06T06:46:43;4.50;65.00
83289;DHT22;73193;50.866;5.420;2024-03-06T06:48:14;4.50;65.10
83289;DHT22;73193;50.866;5.420;2024-03-06T06:49:45;4.50;65.30
83289;DHT22;73193;50.866;5.420;2024-03-06T06:51:15;4.50;65.40
83289;DHT22;73193;50.866;5.420;2024-03-06T06:52:46;4.40;65.50
83289;DHT22;73193;50.866;5.420;2024-03-06T06:54:17;4.40;65.80
83289;DHT22;73193;50.866;5.420;2024-03-06T06:55:48;4.40;65.50
83289;DHT22;73193;50.866;5.420;2024-03-06T06:57:19;4.40;65.80
83289;DHT22;73193;50.866;5.420;2024-03-06T06:58:50;4.40;65.70
83289;DHT22;73193;50.866;5.420;2024-03-06T07:00:21;4.40;65.70
83289;DHT22;73193;50.866;5.420;2024-03-06T07:01:53;4.40;65.10
83289;DHT22;73193;50.866;5.420;2024-03-06T07:03:24;4.40;65.20
83289;DHT22;73193;50.866;5.420;2024-03-06T07:05:15;4.50;65.30
83289;DHT22;73193;50.866;5.420;2024-03-06T07:06:46;4.50;65.50
83289;DHT22;73193;50.866;5.420;2024-03-06T07:08:16;4.50;65.70
83289;DHT22;73193;50.866;5.420;2024-03-06T07:09:47;4.50;65.20
83289;DHT22;73193;50.866;5.420;2024-03-06T07:11:19;4.50;65.30
83289;DHT22;73193;50.866;5.420;2024-03-06T07:12:50;4.60;65.60
83289;DHT22;73193;50.866;5.420;2024-03-06T07:14:21;4.60;65.10
83289;DHT22;73193;50.866;5.420;2024-03-06T07:15:51;4.60;65.40
83289;DHT22;73193;50.866;5.420;2024-03-06T07:17:23;4.60;65.70
83289;DHT22;73193;50.866;5.420;2024-03-06T07:18:54;4.70;65.70
83289;DHT22;73193;50.866;5.420;2024-03-06T07:20:24;4.70;65.60
83289;DHT22;73193;50.866;5.420;2024-03-06T07:21:55;4.80;65.50
83289;DHT22;73193;50.866;5.420;2024-03-06T07:23:26;4.90;65.00
83289;DHT22;73193;50.866;5.420;2024-03-06T07:24:56;4.90;65.00
83289;DHT22;73193;50.866;5.420;2024-03-06T07:26:27;5.00;65.30
83289;DHT22;73193;50.866;5.420;2024-03-06T07:28:00;5.00;65.20
83289;DHT22;73193;50.866;5.420;2024-03-06T07:29:31;5.10;65.10
83289;DHT22;73193;50.866;5.420;2024-03-06T07:31:01;5.10;65.50
83289;DHT22;73193;50.866;5.420;2024-03-06T07:32:33;5.30;65.30
83289;DHT22;73193;50.866;5.420;2024-03-06T07:34:03;5.30;65.20
83289;DHT22;73193;50.866;5.420;2024-03-06T07:35:34;5.40;65.20
83289;DHT22;73193;50.866;5.420;2024-03-06T07:37:06;5.50;65.80
83289;DHT22;73193;50.866;5.420;2024-03-06T07:38:37;5.50;66.00
83289;DHT22;73193;50.866;5.420;2024-03-06T07:40:08;5.60;65.80
83289;DHT22;73193;50.866;5.420;2024-03-06T07:41:39;5.70;65.50
83289;DHT22;73193;50.866;5.420;2024-03-06T07:43:10;5.70;65.70
83289;DHT22;73193;50.866;5.420;2024-03-06T07:44:41;5.80;66.00
83289;DHT22;73193;50.866;5.420;2024-03-06T07:46:12;5.90;65.90
83289;DHT22;73193;50.866;5.420;2024-03-06T07:47:43;6.00;65.90
83289;DHT22;73193;50.866;5.420;2024-03-06T07:49:15;6.10;65.60
83289;DHT22;73193;50.866;5.420;2024-03-06T07:50:46;6.20;65.60
83289;DHT22;73193;50.866;5.420;2024-03-06T07:52:16;6.30;65.70
83289;DHT22;73193;50.866;5.420;2024-03-06T07:53:47;6.30;65.60
83289;DHT22;73193;50.866;5.420;2024-03-06T07:55:19;6.50;65.80
83289;DHT22;73193;50.866;5.420;2024-03-06T07:56:52;6.60;66.00
83289;DHT22;73193;50.866;5.420;2024-03-06T07:58:24;6.80;65.60
83289;DHT22;73193;50.866;5.420;2024-03-06T07:59:54;7.00;66.20
83289;DHT22;73193;50.866;5.420;2024-03-06T08:01:25;7.20;65.20
83289;DHT22;73193;50.866;5.420;2024-03-06T08:02:56;7.40;66.10
83289;DHT22;73193;50.866;5.420;2024-03-06T08:04:27;7.50;65.30
83289;DHT22;73193;50.866;5.420;2024-03-06T08:05:57;7.80;65.80
83289;DHT22;73193;50.866;5.420;2024-03-06T08:07:28;8.00;65.30
83289;DHT22;73193;50.866;5.420;2024-03-06T08:08:59;8.10;64.30
83289;DHT22;73193;50.866;5.420;2024-03-06T08:10:30;8.30;64.30
83289;DHT22;73193;50.866;5.420;2024-03-06T08:12:01;8.50;62.50
83289;DHT22;73193;50.866;5.420;2024-03-06T08:13:32;8.80;63.40
83289;DHT22;73193;50.866;5.420;2024-03-06T08:15:03;8.90;61.90
83289;DHT22;73193;50.866;5.420;2024-03-06T08:16:34;9.00;62.40
83289;DHT22;73193;50.866;5.420;2024-03-06T08:18:05;9.20;62.40
83289;DHT22;73193;50.866;5.420;2024-03-06T08:19:36;9.40;62.10
83289;DHT22;73193;50.866;5.420;2024-03-06T08:21:06;9.60;62.20
83289;DHT22;73193;50.866;5.420;2024-03-06T08:22:38;9.80;61.50
83289;DHT22;73193;50.866;5.420;2024-03-06T08:24:09;9.80;61.00
83289;DHT22;73193;50.866;5.420;2024-03-06T08:25:41;10.00;61.80
83289;DHT22;73193;50.866;5.420;2024-03-06T08:27:11;10.20;60.50
83289;DHT22;73193;50.866;5.420;2024-03-06T08:28:42;10.40;61.00
83289;DHT22;73193;50.866;5.420;2024-03-06T08:30:13;10.20;60.00
83289;DHT22;73193;50.866;5.420;2024-03-06T08:31:43;10.10;59.70
83289;DHT22;73193;50.866;5.420;2024-03-06T08:33:14;10.30;60.30
83289;DHT22;73193;50.866;5.420;2024-03-06T08:34:46;10.40;59.40
83289;DHT22;73193;50.866;5.420;2024-03-06T08:36:17;10.50;60.10
83289;DHT22;73193;50.866;5.420;2024-03-06T08:37:47;10.80;59.70
83289;DHT22;73193;50.866;5.420;2024-03-06T08:39:18;10.90;59.90
83289;DHT22;73193;50.866;5.420;2024-03-06T08:40:49;11.10;59.20
83289;DHT22;73193;50.866;5.420;2024-03-06T08:42:20;11.30;59.70
83289;DHT22;73193;50.866;5.420;2024-03-06T08:43:50;11.50;58.80
83289;DHT22;73193;50.866;5.420;2024-03-06T08:45:22;11.50;58.80
83289;DHT22;73193;50.866;5.420;2024-03-06T08:46:55;11.70;57.40
83289;DHT22;73193;50.866;5.420;2024-03-06T08:48:26;11.90;57.90
83289;DHT22;73193;50.866;5.420;2024-03-06T08:49:57;12.00;57.50
83289;DHT22;73193;50.866;5.420;2024-03-06T08:51:27;12.10;58.80
83289;DHT22;73193;50.866;5.420;2024-03-06T08:52:58;12.10;57.40
83289;DHT22;73193;50.866;5.420;2024-03-06T08:54:29;12.20;57.40
83289;DHT22;73193;50.866;5.420;2024-03-06T08:56:01;12.30;56.60
83289;DHT22;73193;50.866;5.420;2024-03-06T08:57:35;12.10;57.10
83289;DHT22;73193;50.866;5.420;2024-03-06T08:59:06;12.30;58.20
83289;DHT22;73193;50.866;5.420;2024-03-06T09:00:36;12.50;55.90
83289;DHT22;73193;50.866;5.420;2024-03-06T09:02:14;12.50;56.70
83289;DHT22;73193;50.866;5.420;2024-03-06T09:03:45;12.50;56.70
83289;DHT22;73193;50.866;5.420;2024-03-06T09:05:15;12.60;56.10
83289;DHT22;73193;50.866;5.420;2024-03-06T09:06:46;12.60;55.90
83289;DHT22;73193;50.866;5.420;2024-03-06T09:08:17;12.50;56.60
83289;DHT22;73193;50.866;5.420;2024-03-06T09:09:47;12.70;57.20
83289;DHT22;73193;50.866;5.420;2024-03-06T09:11:18;12.80;56.70
83289;DHT22;73193;50.866;5.420;2024-03-06T09:12:49;13.00;55.60
83289;DHT22;73193;50.866;5.420;2024-03-06T09:14:19;13.10;55.90
83289;DHT22;73193;50.866;5.420;2024-03-06T09:15:50;13.30;55.50
83289;DHT22;73193;50.866;5.420;2024-03-06T09:17:21;13.30;55.80
83289;DHT22;73193;50.866;5.420;2024-03-06T09:18:52;13.50;55.00
83289;DHT22;73193;50.866;5.420;2024-03-06T09:20:23;13.50;55.90
83289;DHT22;73193;50.866;5.420;2024-03-06T09:21:55;13.70;54.70
83289;DHT22;73193;50.866;5.420;2024-03-06T09:23:25;13.90;54.40
83289;DHT22;73193;50.866;5.420;2024-03-06T09:24:56;13.90;53.80
83289;DHT22;73193;50.866;5.420;2024-03-06T09:26:27;13.90;54.50
83289;DHT22;73193;50.866;5.420;2024-03-06T09:27:58;13.90;55.40
83289;DHT22;73193;50.866;5.420;2024-03-06T09:29:30;14.20;55.20
83289;DHT22;73193;50.866;5.420;2024-03-06T09:31:01;14.40;54.30
83289;DHT22;73193;50.866;5.420;2024-03-06T09:32:31;14.50;53.30
83289;DHT22;73193;50.866;5.420;2024-03-06T09:34:02;14.60;53.90
83289;DHT22;73193;50.866;5.420;2024-03-06T09:35:33;14.70;55.30
83289;DHT22;73193;50.866;5.420;2024-03-06T09:37:04;15.00;52.20
83289;DHT22;73193;50.866;5.420;2024-03-06T09:38:35;14.90;52.30
83289;DHT22;73193;50.866;5.420;2024-03-06T09:40:08;14.80;53.40
83289;DHT22;73193;50.866;5.420;2024-03-06T09:41:40;14.60;53.70
83289;DHT22;73193;50.866;5.420;2024-03-06T09:43:11;14.60;52.70
83289;DHT22;73193;50.866;5.420;2024-03-06T09:44:43;14.70;54.50